createdAt,value
2019-02-22T00:00:09.971Z,5.6
2019-02-22T00:15:09.908Z,5.7
2019-02-22T00:30:10.086Z,5.7
2019-02-22T00:45:09.992Z,5.8
2019-02-22T01:00:10.036Z,5.8
2019-02-22T01:15:10.088Z,5.7
2019-02-22T01:30:10.366Z,5.6
2019-02-22T01:45:10.194Z,5.6
2019-02-22T02:00:10.286Z,5.6
2019-02-22T02:17:20.985Z,5.5
2019-02-22T02:32:20.121Z,5.5
2019-02-22T02:47:21.231Z,5.5
2019-02-22T03:02:20.245Z,5.5
2019-02-22T03:17:21.375Z,5.5
2019-02-22T03:32:20.577Z,5.5
2019-02-22T03:47:21.678Z,5.5
2019-02-22T04:02:20.632Z,5.5
2019-02-22T04:17:21.751Z,5.5
2019-02-22T04:32:20.850Z,5.4
2019-02-22T04:47:19.898Z,5.4
2019-02-22T05:02:21.010Z,5.4
2019-02-22T05:17:20.147Z,5.3
2019-02-22T05:32:21.326Z,5.2
2019-02-22T05:47:20.276Z,5.2
2019-02-22T06:02:21.398Z,5.2
2019-02-22T06:17:20.474Z,5.2
2019-02-22T06:32:21.711Z,5.1
2019-02-22T06:47:22.730Z,5.1
2019-02-22T07:02:21.785Z,5.1
2019-02-22T07:17:20.859Z,5.1
2019-02-22T07:32:21.992Z,5
2019-02-22T07:45:11.630Z,5.1
2019-02-22T08:02:22.226Z,5.2
2019-02-22T08:17:21.246Z,5.2
2019-02-22T08:32:22.369Z,5.3
2019-02-22T08:45:12.288Z,5.4
2019-02-22T09:02:22.588Z,5.4
2019-02-22T09:17:13.433Z,5.4
2019-02-22T09:32:14.551Z,5.5
2019-02-22T09:47:15.696Z,5.7
2019-02-22T10:17:15.920Z,5.7
2019-02-22T10:32:15.874Z,5.9
2019-02-22T10:45:04.896Z,6
2019-02-22T11:02:15.135Z,6.2
2019-02-22T11:15:04.879Z,6.1
2019-02-22T11:32:15.326Z,6.3
2019-02-22T11:45:04.974Z,6.8
2019-02-22T12:00:05.725Z,7.1
2019-02-22T12:15:05.577Z,7.3
2019-02-22T12:32:17.209Z,7.5
2019-02-22T12:45:05.656Z,7.5
2019-02-22T13:00:05.928Z,7.8
2019-02-22T13:17:17.021Z,8.1
2019-02-22T13:32:16.110Z,8.1
2019-02-22T13:47:15.160Z,8.6
2019-02-22T14:00:06.565Z,8.3
2019-02-22T14:17:17.403Z,7.9
2019-02-22T14:32:20.565Z,7.5
2019-02-22T14:45:11.016Z,7.4
